Fort Madison, IA

6:23 PM CDT on August 27, 2014 (GMT -0500)
Mount Pleasant Municipal | Change Station
CLOSE
Current Station
Airport
Location: Mount Pleasant,
Elevation: 735 ft
Nearby Weather Stations

Elev 735 ft 40.95 °N, 91.51 °W | Updated 8 minutes ago

Clear
Clear
79 °F
Feels Like 79 °F
N
6
Wind Variable Wind from NE

Today
High -- | Low -- °F
--% Chance of Precip.
Yesterday
High -- | Low -- °F
Precip. -- in
6:27 AM 7:45 PM
Waxing Crescent, 5% visible
Pressure 30.07 in
Visibility 10.0 miles
Clouds Clear
Dew Point 68 °F
Humidity 69%
Rainfall 0.42 in
Snow Depth Not available.
UV 1 out of 12
Pollen 8.70 out of 12
Air Quality Not available.
Flu Activity Not available.
METAR KMPZ 272315Z AUTO 04005KT 10SM CLR 26/20 A3007 RMK AO2 T02600200

More Conditions Fewer Conditions

Pressure 30.07 in
Visibility 10.0 miles
Clouds Clear
Dew Point 68 °F
Humidity 69%
Rainfall 0.42 in
Snow Depth Not available.
UV 1 out of 12
Pollen 8.70 out of 12
Air Quality Not available.
Flu Activity Not available.
METAR KMPZ 272315Z AUTO 04005KT 10SM CLR 26/20 A3007 RMK AO2 T02600200

More Conditions Fewer Conditions

10-Day Weather Forecast

Almanac

Astronomy

Aug. 27, 2014 Rise Set
Actual Time 6:27 AM CDT 7:45 PM CDT
Civil Twilight 5:59 AM CDT 8:13 PM CDT
Nautical Twilight 5:25 AM CDT 8:47 PM CDT
Astronomical Twilight 4:49 AM CDT 9:23 PM CDT
Moon 8:24 AM CDT 8:36 PM CDT
Length of Visible Light 14h 14m
Length of Day
13h 17m
Tomorrow will be 2m 33s shorter.
Waxing Crescent, 5% of the Moon is Illuminated
Today
Waxing Crescent
Sep 2
First Quarter
Sep 8
Full
Sep 15
Last Quarter
Sep 24
New

Today's Extremes

State Highs State Lows

Community

WunderPhotos

Upload Photos

1,747,816 photos uploaded!

Nearby

Snow Depth

Station Depth Elevation
No new snow has been reported.

Earthquake Activity

City Distance Mag. Time & Date
No recent earthquake activity has been reported nearby.
Minimum magnitude displayed is 2.5.

Coastal Water Temperatures

Place Temperature
No Stations Reporting

Nearby Weather Stations